Time;durP1;ratioP1;P1;durP2;ratioP2;P2;SDS_P1;SDS_P2;PMS_P1;PMS_P2;Temp;Humidity;BMP_temperature;BMP_pressure;BME280_temperature;BME280_humidity;BME280_pressure;Samples;Min_cycle;Max_cycle;Signal;HPM_P1;HPM_P2
2021/03/27 00:02:37;;;;;;;6.80;5.93;;;3.50;99.90;2.00;97080.00;;;;5066130;28;20444;-70
2021/03/27 00:05:30;;;;;;;9.70;5.20;;;3.40;99.90;1.90;97078.00;;;;5066650;28;20450;-70
2021/03/27 00:08:25;;;;;;;6.37;4.37;;;3.30;99.90;1.90;97078.00;;;;5064992;28;20943;-69
2021/03/27 00:11:22;;;;;;;8.73;5.03;;;3.20;99.90;1.40;97080.00;;;;5049481;28;20444;-69
2021/03/27 00:14:16;;;;;;;6.53;5.03;;;3.00;99.90;1.60;97076.00;;;;5045960;28;21079;-70
2021/03/27 00:17:09;;;;;;;7.07;5.17;;;2.80;99.90;1.50;97062.00;;;;5058295;28;20441;-69
2021/03/27 00:20:05;;;;;;;8.33;4.90;;;2.80;99.90;1.60;97059.00;;;;5074506;28;20445;-70
2021/03/27 00:22:59;;;;;;;7.50;5.37;;;2.80;99.90;1.60;97065.00;;;;5084772;28;20433;-67
2021/03/27 00:25:51;;;;;;;7.30;5.20;;;2.80;99.90;1.80;97057.00;;;;5070243;28;20946;-69
2021/03/27 00:28:44;;;;;;;7.77;5.37;;;2.80;99.90;1.40;97061.00;;;;5077820;28;20438;-69
2021/03/27 00:31:39;;;;;;;7.40;5.53;;;2.80;99.90;1.20;97056.00;;;;5076596;28;20949;-69
2021/03/27 00:34:32;;;;;;;5.77;4.03;;;2.60;99.90;1.40;97057.00;;;;5064442;28;20430;-68
2021/03/27 00:37:25;;;;;;;5.70;4.73;;;2.60;99.90;1.50;97052.00;;;;5068574;28;20448;-68
2021/03/27 00:40:17;;;;;;;9.83;5.27;;;2.60;99.90;1.60;97055.00;;;;5085333;28;20430;-70
2021/03/27 00:43:09;;;;;;;11.63;5.30;;;2.60;99.90;1.60;97052.00;;;;5104324;28;20429;-69
2021/03/27 00:46:02;;;;;;;6.70;4.93;;;2.70;99.90;1.50;97048.00;;;;5106022;28;20428;-70
2021/03/27 00:49:00;;;;;;;8.07;5.00;;;2.70;99.90;1.30;97042.00;;;;5085733;28;20457;-69
2021/03/27 00:51:51;;;;;;;11.87;5.83;;;2.70;99.90;1.40;97052.00;;;;5101350;28;20424;-68
2021/03/27 00:54:47;;;;;;;7.60;5.40;;;2.60;99.90;1.40;97041.00;;;;5103449;28;20429;-68
2021/03/27 00:57:40;;;;;;;7.13;5.37;;;2.60;99.90;1.30;97049.00;;;;5104440;28;20472;-70
2021/03/27 01:00:36;;;;;;;6.83;5.17;;;2.60;99.90;1.20;97043.00;;;;5102079;28;20436;-69
2021/03/27 01:03:32;;;;;;;9.97;5.40;;;2.50;99.90;1.00;97042.00;;;;5097096;28;20429;-69
2021/03/27 01:06:29;;;;;;;8.60;4.97;;;2.40;99.90;1.30;97041.00;;;;5094484;28;20430;-69
2021/03/27 01:09:21;;;;;;;7.53;4.50;;;2.30;99.90;1.50;97034.00;;;;5091309;28;20959;-69
2021/03/27 01:12:15;;;;;;;6.27;4.27;;;2.50;99.90;1.30;97035.00;;;;5084929;28;20430;-69
2021/03/27 01:15:11;;;;;;;7.03;4.40;;;2.50;99.90;1.40;97030.00;;;;5084954;28;20440;-69
2021/03/27 01:18:03;;;;;;;11.27;6.33;;;2.50;99.90;0.90;97025.00;;;;5092574;28;20488;-69
2021/03/27 01:20:57;;;;;;;8.93;5.50;;;2.40;99.90;0.60;97027.00;;;;5084600;28;20433;-69
2021/03/27 01:23:45;;;;;;;8.40;5.40;;;2.20;99.90;0.60;97030.00;;;;5103819;28;20436;-69
2021/03/27 01:26:41;;;;;;;9.30;6.23;;;2.10;99.90;0.70;97034.00;;;;5101978;28;20432;-69
2021/03/27 01:29:35;;;;;;;8.07;4.40;;;2.00;99.90;0.70;97024.00;;;;5096100;28;20416;-68
2021/03/27 01:32:28;;;;;;;6.50;5.07;;;1.90;99.90;0.60;97015.00;;;;5105415;28;20435;-69
2021/03/27 01:35:25;;;;;;;7.60;4.60;;;2.00;99.90;0.20;97013.00;;;;5100068;28;20448;-69
2021/03/27 01:38:18;;;;;;;8.83;4.53;;;1.80;99.90;0.20;97011.00;;;;5076390;28;20515;-68
2021/03/27 01:41:19;;;;;;;6.43;4.80;;;1.60;99.90;0.50;97012.00;;;;5100003;28;20442;-69
2021/03/27 01:44:28;;;;;;;7.47;5.27;;;1.60;99.90;0.50;97014.00;;;;5100816;28;20420;-69
2021/03/27 01:47:29;;;;;;;7.07;4.63;;;1.70;99.90;0.80;97006.00;;;;5068078;28;21237;-68
2021/03/27 01:50:33;;;;;;;7.77;4.73;;;1.80;99.90;1.10;97013.00;;;;5079753;28;20433;-68
2021/03/27 01:53:33;;;;;;;8.23;4.90;;;1.90;99.90;0.80;97008.00;;;;5088058;28;20457;-69
2021/03/27 01:56:47;;;;;;;10.50;5.30;;;2.10;99.90;0.80;97017.00;;;;5089152;28;20445;-68
2021/03/27 01:59:40;;;;;;;8.40;5.00;;;3.40;99.90;0.70;97006.00;;;;5105030;28;21420;-69
2021/03/27 02:02:34;;;;;;;5.60;4.23;;;2.00;99.90;0.70;97000.00;;;;5108989;28;20424;-68
2021/03/27 02:05:30;;;;;;;8.20;5.00;;;1.90;99.90;0.80;97003.00;;;;5108464;28;20434;-70
2021/03/27 02:08:39;;;;;;;7.83;5.60;;;1.90;99.90;1.00;97017.00;;;;5109215;28;20448;-69
2021/03/27 02:11:36;;;;;;;8.30;5.67;;;2.00;99.90;0.70;97003.00;;;;5109142;28;20959;-69
2021/03/27 02:14:36;;;;;;;8.23;4.83;;;2.00;99.90;0.30;96993.00;;;;5108717;28;20429;-69
2021/03/27 02:17:33;;;;;;;7.63;4.97;;;1.90;99.90;0.70;96991.00;;;;5099156;28;20469;-69
2021/03/27 02:20:53;;;;;;;6.40;4.87;;;1.80;99.90;1.00;97002.00;;;;5106717;28;20433;-69
2021/03/27 02:24:02;;;;;;;6.60;5.63;;;1.90;99.90;1.30;96999.00;;;;5107093;28;20448;-69
2021/03/27 02:27:05;;;;;;;7.53;4.57;;;2.10;99.90;0.70;97001.00;;;;5108453;28;20931;-69
2021/03/27 02:30:07;;;;;;;8.50;5.10;;;2.20;99.90;0.60;97003.00;;;;5093599;28;20436;-69
2021/03/27 02:33:21;;;;;;;8.00;4.47;;;2.00;99.90;0.70;96999.00;;;;5104187;28;20420;-69
2021/03/27 02:36:23;;;;;;;6.27;4.70;;;1.90;99.90;0.70;97004.00;;;;5102400;28;20489;-70
2021/03/27 02:39:19;;;;;;;9.13;5.50;;;1.90;99.90;0.60;96986.00;;;;5106447;28;20476;-69
2021/03/27 02:42:23;;;;;;;5.50;4.57;;;1.90;99.90;0.50;96989.00;;;;5108113;28;20421;-69
2021/03/27 02:45:16;;;;;;;6.57;4.40;;;1.90;99.90;0.70;96982.00;;;;5107236;28;20989;-68
2021/03/27 02:48:20;;;;;;;6.60;4.53;;;1.80;99.90;0.60;96999.00;;;;5106655;28;20448;-68
2021/03/27 02:51:20;;;;;;;6.93;4.53;;;1.80;99.90;0.70;96979.00;;;;5106895;28;20439;-68
2021/03/27 02:54:18;;;;;;;5.03;3.90;;;1.90;99.90;0.20;96986.00;;;;5103741;28;20436;-69
2021/03/27 02:57:17;;;;;;;6.47;4.63;;;1.80;99.90;0.10;96989.00;;;;5099700;28;20436;-68
2021/03/27 03:00:18;;;;;;;9.30;5.40;;;1.50;99.90;0.20;96976.00;;;;5096513;28;20464;-70
2021/03/27 03:03:17;;;;;;;8.50;5.80;;;1.40;99.90;0.10;96982.00;;;;5097257;28;20434;-69
2021/03/27 03:06:20;;;;;;;7.00;4.80;;;1.40;99.90;0.20;96988.00;;;;5107069;28;20796;-69
2021/03/27 03:09:15;;;;;;;6.80;4.20;;;1.40;99.90;0.20;96991.00;;;;5105180;28;20810;-70
2021/03/27 03:12:15;;;;;;;9.17;4.70;;;1.40;99.90;0.30;96988.00;;;;5105364;28;20517;-69
2021/03/27 03:15:23;;;;;;;12.97;6.80;;;1.40;99.90;0.50;96998.00;;;;5106533;28;20436;-69
2021/03/27 03:18:22;;;;;;;12.47;5.77;;;1.50;99.90;0.70;96997.00;;;;5105528;28;20484;-70
2021/03/27 03:21:22;;;;;;;10.60;5.70;;;1.60;99.90;0.70;97004.00;;;;5106370;28;20429;-70
2021/03/27 03:24:18;;;;;;;6.10;5.30;;;1.70;99.90;0.70;96993.00;;;;5105752;28;20429;-70
2021/03/27 03:27:15;;;;;;;8.50;4.70;;;1.70;99.90;0.60;96998.00;;;;5106679;28;20810;-69
2021/03/27 03:30:28;;;;;;;9.73;4.90;;;1.90;99.90;0.10;96993.00;;;;5104918;28;20436;-69
2021/03/27 03:33:34;;;;;;;10.13;5.70;;;1.70;99.90;-0.10;96990.00;;;;5105918;28;20429;-69
2021/03/27 03:36:30;;;;;;;8.10;4.77;;;1.40;99.90;-0.20;96977.00;;;;5106023;28;20439;-69
2021/03/27 03:39:33;;;;;;;8.63;5.17;;;1.30;99.90;0.70;96985.00;;;;5104944;28;20480;-69
2021/03/27 03:42:57;;;;;;;4.93;4.43;;;1.50;99.90;-0.30;96975.00;;;;5105523;28;20435;-69
2021/03/27 03:46:22;;;;;;;10.33;5.97;;;1.40;99.90;0.30;96975.00;;;;5099111;28;20429;-70
2021/03/27 03:49:33;;;;;;;6.77;5.13;;;1.30;99.90;0.30;96983.00;;;;5104894;28;20535;-69
2021/03/27 03:52:37;;;;;;;7.07;5.07;;;1.50;99.90;-0.10;96977.00;;;;5106009;28;20429;-69
2021/03/27 03:55:39;;;;;;;6.43;5.20;;;1.40;99.90;-0.40;96986.00;;;;5105467;28;20819;-69
2021/03/27 03:58:53;;;;;;;9.80;5.77;;;1.20;99.90;-0.40;96986.00;;;;5092920;28;20482;-69
2021/03/27 04:01:52;;;;;;;8.63;5.67;;;1.00;99.90;-0.30;97002.00;;;;5098205;28;21310;-69
2021/03/27 04:04:44;;;;;;;5.73;4.87;;;1.00;99.90;-0.20;96989.00;;;;5096277;28;20466;-69
2021/03/27 04:07:40;;;;;;;9.40;6.93;;;1.00;99.90;0.00;96991.00;;;;5098945;28;21323;-69
2021/03/27 04:10:31;;;;;;;10.37;5.47;;;1.00;99.90;0.20;97005.00;;;;5103025;28;20431;-69
2021/03/27 04:13:27;;;;;;;8.23;5.67;;;1.20;99.90;0.50;97000.00;;;;5105384;28;20808;-69
2021/03/27 04:16:18;;;;;;;13.37;5.93;;;1.30;99.90;0.70;96989.00;;;;5105559;28;20421;-69
2021/03/27 04:19:16;;;;;;;10.53;5.67;;;1.50;99.90;0.70;96989.00;;;;5104171;28;20856;-69
2021/03/27 04:22:13;;;;;;;8.13;5.43;;;1.70;99.90;0.50;96987.00;;;;5105699;28;20432;-70
2021/03/27 04:25:21;;;;;;;9.27;5.93;;;1.70;99.90;0.10;96979.00;;;;5105016;28;20433;-70
2021/03/27 04:28:22;;;;;;;13.47;6.27;;;1.60;99.90;-0.30;96978.00;;;;5104958;28;20449;-70
2021/03/27 04:31:21;;;;;;;7.80;5.87;;;1.40;99.90;-0.30;96975.00;;;;5105659;28;20439;-69
2021/03/27 04:34:16;;;;;;;9.83;5.60;;;1.20;99.90;-0.50;96971.00;;;;5104560;28;20427;-70
2021/03/27 04:37:10;;;;;;;6.50;5.00;;;1.10;99.90;-0.30;96973.00;;;;5104176;28;20440;-69
2021/03/27 04:40:04;;;;;;;7.53;5.87;;;1.00;99.90;-0.30;96969.00;;;;5104799;28;20476;-70
2021/03/27 04:43:00;;;;;;;10.77;3.97;;;0.90;99.90;-0.40;96971.00;;;;5103397;28;20870;-70
2021/03/27 04:45:52;;;;;;;9.37;6.23;;;0.90;99.90;-0.20;96970.00;;;;5096845;28;20448;-70
2021/03/27 04:48:45;;;;;;;8.83;5.67;;;1.00;99.90;-0.10;96970.00;;;;5104502;28;20460;-69
2021/03/27 04:51:51;;;;;;;9.80;5.07;;;1.00;99.90;0.20;96983.00;;;;5104589;28;20457;-69
2021/03/27 04:54:56;;;;;;;11.27;6.27;;;1.10;99.90;0.50;96982.00;;;;5104218;28;20435;-69
2021/03/27 04:58:01;;;;;;;9.70;5.03;;;1.30;99.90;0.60;96975.00;;;;5099303;28;20457;-69
2021/03/27 05:01:06;;;;;;;9.70;6.10;;;1.50;99.90;0.80;96984.00;;;;5103472;28;20439;-69
2021/03/27 05:04:05;;;;;;;10.07;5.03;;;1.60;99.90;1.00;96990.00;;;;5104049;28;20420;-68
2021/03/27 05:07:02;;;;;;;10.83;5.93;;;1.80;99.90;1.20;96983.00;;;;5104451;28;20440;-69
2021/03/27 05:09:54;;;;;;;7.53;6.30;;;2.00;99.90;1.60;96989.00;;;;5103780;28;20488;-69
2021/03/27 05:12:59;;;;;;;8.17;6.20;;;2.30;99.90;1.50;96987.00;;;;5102956;28;20444;-69
2021/03/27 05:15:50;;;;;;;7.47;5.37;;;2.40;99.90;1.10;96980.00;;;;5105046;28;20521;-69
2021/03/27 05:18:48;;;;;;;6.73;5.60;;;2.50;99.90;0.90;96983.00;;;;5106748;28;20487;-69
2021/03/27 05:21:58;;;;;;;8.57;5.80;;;2.30;99.90;0.60;96979.00;;;;5108784;28;20436;-69
2021/03/27 05:25:37;;;;;;;7.20;4.87;;;2.10;99.90;0.50;96984.00;;;;5107886;28;21001;-68
2021/03/27 05:29:00;;;;;;;7.57;5.17;;;1.90;99.90;0.30;96981.00;;;;5102447;28;20460;-68
2021/03/27 05:31:55;;;;;;;16.30;6.67;;;1.80;99.90;0.50;96974.00;;;;5108240;28;20454;-68
2021/03/27 05:34:51;;;;;;;12.33;6.93;;;1.70;99.90;0.60;96962.00;;;;5102118;28;20821;-68
2021/03/27 05:37:53;;;;;;;7.53;5.00;;;1.70;99.90;0.90;96980.00;;;;5095487;28;20460;-69
2021/03/27 05:41:35;;;;;;;8.30;5.97;;;1.80;99.90;1.30;96984.00;;;;5087258;28;20425;-68
2021/03/27 05:45:03;;;;;;;14.47;9.00;;;2.80;99.90;1.80;96979.00;;;;5088822;28;20437;-68
2021/03/27 05:48:36;;;;;;;11.53;7.23;;;2.40;99.90;1.80;96980.00;;;;5101504;28;20516;-68
2021/03/27 05:52:20;;;;;;;5.63;4.87;;;2.70;99.90;1.50;96975.00;;;;5099787;28;20846;-69
2021/03/27 05:55:31;;;;;;;8.50;5.60;;;2.70;99.90;1.80;96996.00;;;;5057964;28;20441;-69
2021/03/27 05:58:56;;;;;;;6.27;4.37;;;2.80;99.90;1.80;96985.00;;;;5092136;28;20463;-69
2021/03/27 06:01:54;;;;;;;6.57;5.20;;;2.90;99.90;2.00;96987.00;;;;5099549;28;20431;-69
2021/03/27 06:05:27;;;;;;;6.90;5.33;;;3.00;99.90;2.70;96988.00;;;;5106256;28;20455;-69
2021/03/27 06:08:35;;;;;;;8.03;5.63;;;3.30;99.90;2.70;96983.00;;;;5108359;28;20444;-69
2021/03/27 06:11:37;;;;;;;8.90;8.03;;;3.50;99.90;2.80;96981.00;;;;5107487;28;20432;-70
2021/03/27 06:15:19;;;;;;;8.53;5.93;;;3.70;99.90;2.80;96984.00;;;;5107368;28;20447;-69
2021/03/27 06:18:44;;;;;;;8.20;5.73;;;3.80;99.90;3.10;96991.00;;;;5106532;28;20464;-69
2021/03/27 06:21:46;;;;;;;7.47;6.07;;;3.90;99.90;3.30;97001.00;;;;5086957;28;20808;-69
2021/03/27 06:24:49;;;;;;;10.97;6.30;;;4.10;99.90;3.30;96992.00;;;;5073660;28;20441;-69
2021/03/27 06:28:18;;;;;;;10.77;5.83;;;4.20;99.90;3.60;97000.00;;;;5063330;28;20551;-69
2021/03/27 06:31:23;;;;;;;10.37;6.03;;;4.30;99.90;3.80;97011.00;;;;5077118;28;20468;-68
2021/03/27 06:34:49;;;;;;;7.50;6.70;;;4.50;99.90;4.00;97002.00;;;;5084991;28;20437;-68
2021/03/27 06:38:06;;;;;;;13.77;8.57;;;4.70;99.90;4.10;96999.00;;;;5078138;28;20457;-68
2021/03/27 06:41:09;;;;;;;13.53;8.90;;;4.80;99.90;4.00;97003.00;;;;5079891;28;20633;-68
2021/03/27 06:44:15;;;;;;;21.40;9.23;;;5.00;99.90;4.00;97012.00;;;;5096653;28;20432;-68
2021/03/27 06:47:51;;;;;;;6.77;6.07;;;5.00;99.90;4.20;97018.00;;;;5077624;28;20438;-68
2021/03/27 06:51:21;;;;;;;8.73;5.80;;;5.00;99.90;4.30;97013.00;;;;5079559;28;20442;-68
2021/03/27 06:54:44;;;;;;;8.73;6.30;;;5.20;99.90;4.50;97007.00;;;;5085343;28;20429;-68
2021/03/27 06:58:06;;;;;;;15.53;6.50;;;5.20;99.90;4.80;97000.00;;;;5076158;28;20461;-68
2021/03/27 07:01:24;;;;;;;22.33;13.70;;;5.40;99.90;5.00;97004.00;;;;5081162;28;20441;-68
2021/03/27 07:05:21;;;;;;;15.63;11.53;;;5.70;99.90;5.30;96996.00;;;;5088909;28;20437;-69
2021/03/27 07:08:47;;;;;;;8.13;6.57;;;5.80;99.90;5.70;97001.00;;;;5072259;28;20484;-68
2021/03/27 07:12:17;;;;;;;50.63;29.40;;;6.10;99.90;6.10;96997.00;;;;5079504;28;20448;-68
2021/03/27 07:15:48;;;;;;;14.73;9.30;;;6.40;99.90;6.50;97000.00;;;;5101149;28;20490;-69
2021/03/27 07:19:18;;;;;;;16.80;6.80;;;6.80;99.90;6.90;97008.00;;;;5067215;28;20853;-68
2021/03/27 07:22:33;;;;;;;10.23;6.13;;;7.10;99.90;7.20;97016.00;;;;5078786;28;20202;-68
2021/03/27 07:26:05;;;;;;;10.33;6.93;;;7.50;99.90;7.50;97013.00;;;;5079589;28;20212;-69
2021/03/27 07:29:32;;;;;;;8.50;7.00;;;7.80;99.90;7.80;97019.00;;;;5082758;28;20765;-69
2021/03/27 07:33:09;;;;;;;12.60;6.63;;;8.10;99.90;8.00;97017.00;;;;5078854;28;20208;-68
2021/03/27 07:37:00;;;;;;;10.43;7.13;;;8.40;99.90;8.20;97027.00;;;;5070654;28;20199;-69
2021/03/27 07:40:33;;;;;;;9.40;6.70;;;8.70;99.90;8.50;97012.00;;;;5077629;28;20286;-68
2021/03/27 07:44:08;;;;;;;13.33;7.93;;;8.90;99.90;8.60;97010.00;;;;5083676;28;20198;-68
2021/03/27 07:47:42;;;;;;;12.53;6.87;;;9.20;96.60;8.90;97020.00;;;;5079785;28;20273;-68
2021/03/27 07:51:00;;;;;;;14.67;8.00;;;9.30;94.50;9.20;97013.00;;;;5079949;28;20200;-68
2021/03/27 07:54:30;;;;;;;14.23;9.17;;;9.50;94.20;9.50;97021.00;;;;5081147;28;20220;-68
2021/03/27 07:58:05;;;;;;;16.70;9.63;;;9.70;93.30;9.80;97028.00;;;;5077900;28;20199;-68
2021/03/27 08:01:29;;;;;;;11.63;7.00;;;10.10;91.60;9.90;97013.00;;;;5071661;28;20222;-67
2021/03/27 08:05:01;;;;;;;11.60;7.60;;;10.30;90.90;10.30;97022.00;;;;5057866;28;20284;-67
2021/03/27 08:08:12;;;;;;;13.20;6.87;;;10.60;89.10;10.40;97019.00;;;;5078599;28;20223;-67
2021/03/27 08:11:18;;;;;;;8.83;7.03;;;10.80;83.40;10.60;97030.00;;;;5085292;28;20666;-67
2021/03/27 08:14:39;;;;;;;9.50;7.03;;;11.00;82.20;10.70;97035.00;;;;5079522;28;20207;-67
2021/03/27 08:17:44;;;;;;;10.90;8.13;;;11.20;79.00;10.90;97029.00;;;;5077484;28;20228;-69
2021/03/27 08:20:55;;;;;;;13.37;8.10;;;11.40;77.80;11.40;97035.00;;;;5079623;28;20230;-69
2021/03/27 08:24:05;;;;;;;9.73;6.40;;;11.60;77.50;11.60;97029.00;;;;5079712;28;20199;-68
2021/03/27 08:27:35;;;;;;;9.43;7.10;;;11.90;77.00;12.00;97028.00;;;;5083373;28;20259;-68
2021/03/27 08:31:23;;;;;;;8.47;5.97;;;12.10;75.70;12.40;97028.00;;;;5082453;28;20211;-69
2021/03/27 08:34:56;;;;;;;8.17;6.57;;;12.50;73.80;12.60;97020.00;;;;5036396;28;20199;-68
2021/03/27 08:38:42;;;;;;;9.47;6.90;;;12.80;71.10;12.90;97018.00;;;;5083561;28;20594;-68
2021/03/27 08:42:07;;;;;;;12.23;6.20;;;13.10;69.20;13.20;97002.00;;;;4979446;28;20218;-68
2021/03/27 08:45:14;;;;;;;14.50;9.20;;;13.40;68.50;13.30;96996.00;;;;4982776;28;20202;-68
2021/03/27 08:48:31;;;;;;;10.87;7.07;;;13.60;65.70;13.50;97002.00;;;;5083440;28;20223;-68
2021/03/27 08:51:27;;;;;;;20.77;11.17;;;13.80;66.20;13.70;97009.00;;;;5075814;28;20211;-69
2021/03/27 08:55:27;;;;;;;25.77;13.03;;;14.00;65.90;13.90;97014.00;;;;5081976;28;20230;-67
2021/03/27 08:58:47;;;;;;;10.57;7.23;;;14.20;64.40;14.10;97018.00;;;;5007430;28;20238;-69
2021/03/27 09:02:01;;;;;;;7.67;6.27;;;14.30;63.60;14.20;97012.00;;;;5063195;28;20211;-68
2021/03/27 09:05:17;;;;;;;8.07;6.77;;;14.50;63.80;14.10;97013.00;;;;5064590;28;20216;-67
2021/03/27 09:08:37;;;;;;;11.13;6.90;;;14.70;61.30;14.50;97011.00;;;;5064829;28;20615;-68
2021/03/27 09:12:05;;;;;;;11.47;7.30;;;14.80;61.20;14.70;97013.00;;;;5063691;28;20212;-69
2021/03/27 09:15:42;;;;;;;8.57;6.97;;;15.00;60.90;14.60;97005.00;;;;5075376;28;20210;-69
2021/03/27 09:18:57;;;;;;;11.40;6.70;;;15.10;60.50;15.00;97009.00;;;;5083969;28;20246;-69
2021/03/27 09:22:02;;;;;;;9.37;6.83;;;15.20;60.10;15.10;97009.00;;;;5078588;28;20207;-69
2021/03/27 09:24:57;;;;;;;10.53;7.63;;;15.40;59.80;15.20;97013.00;;;;5081479;28;20215;-69
2021/03/27 09:28:22;;;;;;;10.07;7.17;;;15.50;58.90;15.50;97011.00;;;;5082183;28;20226;-70
2021/03/27 09:31:52;;;;;;;10.57;6.70;;;15.70;59.00;15.40;97012.00;;;;5084179;28;20199;-69
2021/03/27 09:35:20;;;;;;;9.80;6.10;;;15.90;57.90;15.60;97013.00;;;;5075562;28;20214;-70
2021/03/27 09:38:42;;;;;;;8.97;6.17;;;15.90;57.50;16.10;97018.00;;;;5078001;28;20211;-69
2021/03/27 09:41:56;;;;;;;8.90;6.43;;;16.10;58.30;16.30;97022.00;;;;5057891;28;20215;-69
2021/03/27 09:45:17;;;;;;;10.00;6.30;;;16.40;57.10;16.60;97022.00;;;;5081958;28;20206;-69
2021/03/27 09:48:37;;;;;;;8.50;6.40;;;16.60;57.20;17.00;97021.00;;;;5081248;28;20223;-69
2021/03/27 09:52:02;;;;;;;13.77;8.10;;;16.90;57.00;16.90;97012.00;;;;5079200;28;20249;-69
2021/03/27 09:55:15;;;;;;;8.93;6.20;;;17.10;55.70;17.50;97019.00;;;;5080036;28;20200;-69
2021/03/27 09:58:28;;;;;;;14.10;7.10;;;17.40;55.80;17.70;97017.00;;;;5081003;28;20241;-69
2021/03/27 10:01:25;;;;;;;9.80;6.07;;;17.60;54.90;17.80;97011.00;;;;5075394;28;20203;-69
2021/03/27 10:04:35;;;;;;;11.80;6.33;;;17.80;55.20;18.00;97008.00;;;;5082365;28;20199;-69
2021/03/27 10:07:52;;;;;;;10.30;6.00;;;18.00;54.10;18.20;97013.00;;;;5085996;28;20234;-69
2021/03/27 10:10:55;;;;;;;8.03;5.70;;;18.20;53.10;18.30;97004.00;;;;5085257;28;20195;-68
2021/03/27 10:13:53;;;;;;;7.97;6.50;;;18.40;52.50;18.50;97003.00;;;;5085562;28;20731;-69
2021/03/27 10:16:46;;;;;;;9.57;6.20;;;18.50;51.80;18.90;97004.00;;;;5084370;28;20208;-69
2021/03/27 10:19:49;;;;;;;10.30;7.70;;;18.70;52.00;19.10;97008.00;;;;5088035;28;20222;-69
2021/03/27 10:22:44;;;;;;;8.57;5.90;;;18.90;51.20;19.20;97007.00;;;;5082144;28;20275;-68
2021/03/27 10:25:38;;;;;;;7.93;5.10;;;19.10;50.70;19.50;97011.00;;;;5079155;28;20212;-69
2021/03/27 10:28:32;;;;;;;10.67;6.30;;;19.40;50.50;19.70;97008.00;;;;5078494;28;20220;-69
2021/03/27 10:31:26;;;;;;;8.50;5.40;;;19.60;49.60;19.40;96996.00;;;;5074072;28;20223;-69
2021/03/27 10:34:39;;;;;;;12.40;6.50;;;19.70;48.50;19.60;97000.00;;;;5079269;28;20300;-69
2021/03/27 10:37:38;;;;;;;8.93;6.00;;;19.80;47.60;19.80;96998.00;;;;5079740;28;20226;-69
2021/03/27 10:40:39;;;;;;;8.23;4.70;;;19.90;47.90;20.00;96999.00;;;;5077157;28;20241;-69
2021/03/27 10:43:50;;;;;;;8.37;4.60;;;20.10;46.90;20.40;97004.00;;;;5075989;28;20241;-69
2021/03/27 10:46:41;;;;;;;9.37;4.67;;;20.20;48.00;20.20;96990.00;;;;5073474;28;20227;-69
2021/03/27 10:49:39;;;;;;;11.87;6.00;;;20.40;46.80;20.80;96998.00;;;;5083759;28;20781;-69
2021/03/27 10:53:13;;;;;;;10.20;5.67;;;20.60;47.20;20.50;96991.00;;;;5076092;28;20670;-69
2021/03/27 10:56:31;;;;;;;9.37;6.20;;;21.00;46.50;21.50;96985.00;;;;5079158;28;20260;-68
2021/03/27 10:59:34;;;;;;;7.87;5.13;;;21.20;46.50;22.10;96992.00;;;;5083056;28;20234;-69
2021/03/27 11:02:47;;;;;;;6.97;4.70;;;21.60;46.70;22.20;96988.00;;;;5082438;28;20251;-70
2021/03/27 11:06:10;;;;;;;7.43;4.53;;;21.90;45.50;22.70;96987.00;;;;5083709;28;20218;-70
2021/03/27 11:10:00;;;;;;;6.67;4.83;;;22.30;45.60;23.00;96990.00;;;;5077299;28;20228;-70
2021/03/27 11:13:33;;;;;;;7.67;5.57;;;22.70;45.40;23.30;97000.00;;;;5081169;28;20569;-70
2021/03/27 11:17:02;;;;;;;12.93;6.50;;;23.10;44.70;22.00;96975.00;;;;5078583;28;20197;-70
2021/03/27 11:20:38;;;;;;;7.60;5.67;;;23.30;42.40;22.80;96987.00;;;;5084953;28;20207;-69
2021/03/27 11:24:07;;;;;;;8.93;6.17;;;23.30;42.40;22.80;96981.00;;;;5079074;28;20222;-69
2021/03/27 11:27:34;;;;;;;7.93;5.27;;;23.30;43.20;23.10;96990.00;;;;5064499;28;20214;-69
2021/03/27 11:30:35;;;;;;;9.07;5.93;;;23.40;42.80;23.70;96983.00;;;;5073349;28;20228;-69
2021/03/27 11:33:33;;;;;;;12.77;6.73;;;23.60;42.20;24.00;96983.00;;;;5076507;28;20217;-69
2021/03/27 11:36:25;;;;;;;6.70;4.73;;;23.90;42.90;24.40;96983.00;;;;5076589;28;20210;-69
2021/03/27 11:39:27;;;;;;;7.77;5.50;;;24.10;43.00;24.90;97001.00;;;;5078355;28;20228;-69
2021/03/27 11:42:27;;;;;;;8.10;5.53;;;24.40;42.10;25.20;96999.00;;;;5066104;28;20200;-69
2021/03/27 11:45:24;;;;;;;10.53;7.20;;;24.80;41.40;21.90;97020.00;;;;5066405;28;20714;-69
2021/03/27 11:48:19;;;;;;;8.57;6.27;;;24.40;39.60;22.60;96970.00;;;;5074818;28;20229;-69
2021/03/27 11:51:16;;;;;;;9.70;5.50;;;23.70;41.40;23.90;96975.00;;;;5080226;28;20233;-69
2021/03/27 11:54:25;;;;;;;9.40;7.10;;;23.80;40.80;23.90;96974.00;;;;5077320;28;20244;-69
2021/03/27 11:57:28;;;;;;;10.40;5.90;;;24.00;41.40;24.40;96977.00;;;;5066453;28;20202;-69
2021/03/27 12:01:02;;;;;;;8.47;6.47;;;24.40;41.20;24.90;96972.00;;;;5087122;28;20210;-68
2021/03/27 12:04:05;;;;;;;9.63;6.37;;;24.80;40.70;24.80;96968.00;;;;5078556;28;20569;-69
2021/03/27 12:07:08;;;;;;;9.73;8.33;;;25.20;39.40;23.10;96967.00;;;;5078220;28;20203;-69
2021/03/27 12:10:03;;;;;;;10.00;8.07;;;24.90;39.20;24.60;96961.00;;;;5065008;28;20227;-69
2021/03/27 12:13:00;;;;;;;8.90;6.93;;;25.00;40.20;25.20;96966.00;;;;5074597;28;20716;-69
2021/03/27 12:15:54;;;;;;;9.90;7.10;;;24.90;40.40;25.60;96957.00;;;;5077593;28;20213;-69
2021/03/27 12:19:15;;;;;;;8.03;5.87;;;25.20;40.10;26.50;96966.00;;;;5066406;28;20231;-70
2021/03/27 12:22:12;;;;;;;8.27;5.47;;;25.70;40.40;25.20;96956.00;;;;5079384;28;20190;-70
2021/03/27 12:25:29;;;;;;;8.50;6.72;;;26.00;37.90;26.70;96959.00;;;;5079949;28;20213;-70
2021/03/27 12:28:32;;;;;;;8.15;5.90;;;26.30;38.90;27.40;96949.00;;;;5076706;28;20292;-71
2021/03/27 12:31:51;;;;;;;4.82;3.30;;;26.80;39.40;27.40;96961.00;;;;5079714;28;20232;-70
2021/03/27 12:34:50;;;;;;;6.93;3.38;;;27.10;38.00;26.00;96953.00;;;;5082709;28;20587;-70
2021/03/27 12:37:44;;;;;;;4.68;3.70;;;26.90;36.80;24.90;96957.00;;;;5082308;28;20222;-70
2021/03/27 12:40:36;;;;;;;3.93;2.83;;;26.80;36.50;22.10;96950.00;;;;5077934;28;20213;-67
2021/03/27 12:43:27;;;;;;;4.30;3.17;;;24.90;37.30;21.40;96946.00;;;;5071300;28;20216;-69
2021/03/27 12:46:43;;;;;;;4.23;2.53;;;23.30;38.10;21.80;96939.00;;;;5077666;28;20222;-69
2021/03/27 12:49:52;;;;;;;3.50;3.20;;;23.00;39.00;22.80;96942.00;;;;5076200;28;20215;-69
2021/03/27 12:53:20;;;;;;;3.40;2.33;;;23.00;39.70;22.40;96936.00;;;;5073814;28;20211;-69
2021/03/27 12:57:06;;;;;;;5.27;3.40;;;23.20;39.10;22.90;96929.00;;;;5072408;28;20280;-69
2021/03/27 13:00:31;;;;;;;5.80;2.63;;;23.40;39.30;23.70;96941.00;;;;5027260;28;20470;-69
2021/03/27 13:03:57;;;;;;;8.10;3.17;;;23.60;39.10;25.10;96943.00;;;;5079326;28;20210;-69
2021/03/27 13:06:58;;;;;;;7.60;3.50;;;24.10;39.10;24.40;97017.00;;;;5015139;28;20669;-69
2021/03/27 13:10:39;;;;;;;5.20;2.83;;;24.50;39.20;21.70;97013.00;;;;5081830;28;20604;-68
2021/03/27 13:14:29;;;;;;;6.33;3.27;;;23.90;38.20;22.40;97011.00;;;;5081379;28;20196;-69
2021/03/27 13:17:26;;;;;;;5.57;2.80;;;23.20;39.90;22.30;97006.00;;;;5039500;28;20224;-69
2021/03/27 13:20:24;;;;;;;3.17;2.83;;;23.00;39.60;22.10;97018.00;;;;5080396;28;20242;-69
2021/03/27 13:23:18;;;;;;;3.63;3.00;;;22.90;39.80;22.90;96956.00;;;;5082191;28;20207;-69
2021/03/27 13:26:12;;;;;;;3.30;2.87;;;22.80;40.40;22.70;96969.00;;;;5081726;28;20207;-69
2021/03/27 13:29:31;;;;;;;3.10;2.57;;;23.00;39.60;22.90;97021.00;;;;5082750;28;20230;-68
2021/03/27 13:32:24;;;;;;;3.00;2.60;;;23.10;40.20;21.70;97029.00;;;;5082430;28;20204;-69
2021/03/27 13:35:18;;;;;;;5.93;3.50;;;22.90;39.20;21.80;97032.00;;;;5083659;28;20197;-68
2021/03/27 13:38:12;;;;;;;7.03;2.63;;;22.60;39.60;21.40;97024.00;;;;5082357;28;20268;-69
2021/03/27 13:41:09;;;;;;;6.77;3.60;;;22.30;40.30;20.70;97021.00;;;;5084502;28;20211;-68
2021/03/27 13:44:08;;;;;;;3.63;2.97;;;21.90;40.60;20.30;97030.00;;;;5085180;28;20553;-68
2021/03/27 13:47:13;;;;;;;6.40;3.00;;;21.50;41.50;19.90;97040.00;;;;5085883;28;20206;-68
2021/03/27 13:50:26;;;;;;;6.33;4.70;;;21.00;42.20;19.40;97035.00;;;;5087043;28;20588;-68
2021/03/27 13:53:40;;;;;;;3.07;2.77;;;20.70;43.40;19.40;97037.00;;;;5086581;28;20203;-68
2021/03/27 13:56:39;;;;;;;2.93;2.13;;;20.30;44.50;18.90;97047.00;;;;5085167;28;20567;-68
2021/03/27 13:59:49;;;;;;;28.03;5.83;;;20.00;45.30;18.70;97034.00;;;;5079389;28;20223;-68
2021/03/27 14:03:02;;;;;;;3.20;2.30;;;19.80;46.20;18.70;97054.00;;;;5084228;28;20620;-68
2021/03/27 14:06:24;;;;;;;4.87;2.03;;;19.50;46.90;18.10;97049.00;;;;5081512;28;20379;-68